GLD1794 LPLA-LPGR

Flight info

Callsign GLD1794
Flight time 0h 26m
Altitude 4000
Route IRDOP
Aircraft BE58/L-SDFGRY/C

Departure

Time 2026-05-08 17:05
Airport Lajes Airport (LPLA)

Arrival

Time 2026-05-08 17:31
Airport Graciosa Airport (LPGR)
Time Latitude Longitude Altitude Speed Heading
2026-05-08 16:48 38.76423 -27.09021 172 ft 0 kts 230°
2026-05-08 17:01 38.76421 -27.09025 172 ft 3 kts 229°
2026-05-08 17:02 38.76399 -27.09052 172 ft 1 kts 185°
2026-05-08 17:02 38.76362 -27.09018 172 ft 12 kts 143°
2026-05-08 17:02 38.76289 -27.08942 172 ft 13 kts 144°
2026-05-08 17:02 38.76224 -27.08875 172 ft 8 kts 135°
2026-05-08 17:03 38.76188 -27.08843 172 ft 6 kts 166°
2026-05-08 17:03 38.76169 -27.08870 173 ft 3 kts 263°
2026-05-08 17:03 38.76157 -27.08896 173 ft 7 kts 227°
2026-05-08 17:03 38.76112 -27.08967 174 ft 12 kts 234°
2026-05-08 17:04 38.76152 -27.09046 174 ft 30 kts 320°
2026-05-08 17:04 38.76497 -27.09412 252 ft 84 kts 322°
2026-05-08 17:04 38.76996 -27.09892 576 ft 96 kts 327°
2026-05-08 17:04 38.77587 -27.10539 640 ft 126 kts 321°
2026-05-08 17:05 38.78266 -27.11315 891 ft 133 kts 321°
2026-05-08 17:05 38.78966 -27.12116 1163 ft 136 kts 322°
2026-05-08 17:05 38.79680 -27.12933 1429 ft 138 kts 322°
2026-05-08 17:05 38.80397 -27.13755 1699 ft 138 kts 322°
2026-05-08 17:06 38.81111 -27.14572 1958 ft 138 kts 322°
2026-05-08 17:06 38.81831 -27.15392 2217 ft 139 kts 322°
2026-05-08 17:06 38.82548 -27.16207 2465 ft 140 kts 323°
2026-05-08 17:06 38.83279 -27.17034 2722 ft 140 kts 323°
2026-05-08 17:07 38.84023 -27.17877 2963 ft 141 kts 323°
2026-05-08 17:07 38.84761 -27.18711 3221 ft 141 kts 323°
2026-05-08 17:07 38.85498 -27.19544 3487 ft 142 kts 322°
2026-05-08 17:07 38.86226 -27.20373 3736 ft 142 kts 322°
2026-05-08 17:08 38.86965 -27.21217 3986 ft 142 kts 322°
2026-05-08 17:08 38.87738 -27.22097 4015 ft 154 kts 322°
2026-05-08 17:08 38.88561 -27.23025 4024 ft 161 kts 322°
2026-05-08 17:08 38.89420 -27.23989 4029 ft 165 kts 322°
2026-05-08 17:09 38.90233 -27.25047 4028 ft 171 kts 306°
2026-05-08 17:09 38.90473 -27.26586 4029 ft 184 kts 276°
2026-05-08 17:09 38.90514 -27.28211 4027 ft 180 kts 283°
2026-05-08 17:09 38.90678 -27.29797 4029 ft 178 kts 285°
2026-05-08 17:10 38.90874 -27.31368 4029 ft 178 kts 286°
2026-05-08 17:10 38.91069 -27.32921 4028 ft 178 kts 286°
2026-05-08 17:10 38.91262 -27.34490 4027 ft 178 kts 285°
2026-05-08 17:10 38.91456 -27.36069 4031 ft 179 kts 286°
2026-05-08 17:11 38.91651 -27.37650 4031 ft 179 kts 286°
2026-05-08 17:11 38.91844 -27.39229 4030 ft 179 kts 286°
2026-05-08 17:11 38.92040 -27.40817 4028 ft 180 kts 286°
2026-05-08 17:11 38.92233 -27.42402 4027 ft 179 kts 286°
2026-05-08 17:12 38.92427 -27.43984 4029 ft 179 kts 286°
2026-05-08 17:12 38.92620 -27.45567 4028 ft 179 kts 286°
2026-05-08 17:12 38.92813 -27.47149 4030 ft 179 kts 285°
2026-05-08 17:12 38.93005 -27.48730 4025 ft 180 kts 286°
2026-05-08 17:13 38.93199 -27.50320 4024 ft 180 kts 286°
2026-05-08 17:13 38.93393 -27.51910 4023 ft 180 kts 286°
2026-05-08 17:13 38.93584 -27.53493 4023 ft 179 kts 286°
2026-05-08 17:13 38.93776 -27.55072 4023 ft 179 kts 286°
2026-05-08 17:14 38.93964 -27.56625 4024 ft 178 kts 286°
2026-05-08 17:14 38.94154 -27.58196 4025 ft 178 kts 286°
2026-05-08 17:14 38.94345 -27.59777 4031 ft 179 kts 285°
2026-05-08 17:14 38.94537 -27.61365 4033 ft 180 kts 286°
2026-05-08 17:15 38.94728 -27.62954 4037 ft 181 kts 286°
2026-05-08 17:15 38.94920 -27.64550 4037 ft 180 kts 286°
2026-05-08 17:15 38.95111 -27.66137 4035 ft 179 kts 286°
2026-05-08 17:15 38.95300 -27.67715 4035 ft 178 kts 286°
2026-05-08 17:16 38.95488 -27.69286 4033 ft 178 kts 286°
2026-05-08 17:16 38.95677 -27.70856 4032 ft 178 kts 285°
2026-05-08 17:16 38.95866 -27.72428 4035 ft 178 kts 286°
2026-05-08 17:16 38.96054 -27.74002 4035 ft 178 kts 286°
2026-05-08 17:17 38.96242 -27.75575 4030 ft 178 kts 286°
2026-05-08 17:17 38.96429 -27.77152 4030 ft 179 kts 285°
2026-05-08 17:17 38.96617 -27.78727 4029 ft 178 kts 286°
2026-05-08 17:17 38.96804 -27.80297 4029 ft 178 kts 286°
2026-05-08 17:18 38.96991 -27.81873 4030 ft 178 kts 286°
2026-05-08 17:18 38.97181 -27.83419 4036 ft 178 kts 287°
2026-05-08 17:18 38.97374 -27.84991 4036 ft 178 kts 286°
2026-05-08 17:18 38.97562 -27.86565 4011 ft 180 kts 286°
2026-05-08 17:19 38.97748 -27.88155 4007 ft 180 kts 286°
2026-05-08 17:19 38.97935 -27.89744 4006 ft 179 kts 285°
2026-05-08 17:19 38.98122 -27.91330 4007 ft 179 kts 285°
2026-05-08 17:19 38.98307 -27.92913 4007 ft 179 kts 286°
2026-05-08 17:20 38.98494 -27.94497 4007 ft 179 kts 285°
2026-05-08 17:20 38.98680 -27.96078 4015 ft 179 kts 285°
2026-05-08 17:20 38.98865 -27.97670 4013 ft 179 kts 286°
2026-05-08 17:20 38.99051 -27.99251 4012 ft 178 kts 286°
2026-05-08 17:21 38.99234 -28.00821 4011 ft 177 kts 286°
2026-05-08 17:21 38.99417 -28.02391 4010 ft 177 kts 286°
2026-05-08 17:21 38.99598 -28.03934 4006 ft 176 kts 286°
2026-05-08 17:21 38.99779 -28.05490 4008 ft 176 kts 286°
2026-05-08 17:22 38.99961 -28.07055 4010 ft 177 kts 285°
2026-05-08 17:22 39.00144 -28.08628 4001 ft 178 kts 285°
2026-05-08 17:22 39.00326 -28.10202 4002 ft 178 kts 285°
2026-05-08 17:22 39.00509 -28.11782 4002 ft 178 kts 285°
2026-05-08 17:23 39.00692 -28.13358 3999 ft 178 kts 286°
2026-05-08 17:23 39.00873 -28.14925 4000 ft 177 kts 285°
2026-05-08 17:23 39.01055 -28.16498 3999 ft 178 kts 285°
2026-05-08 17:23 39.01237 -28.18071 3999 ft 178 kts 285°
2026-05-08 17:24 39.01418 -28.19646 4002 ft 178 kts 285°
2026-05-08 17:24 39.01600 -28.21226 4001 ft 179 kts 285°
2026-05-08 17:24 39.01781 -28.22805 4001 ft 178 kts 285°
2026-05-08 17:24 39.01959 -28.24357 4003 ft 178 kts 285°
2026-05-08 17:25 39.02141 -28.25938 4005 ft 178 kts 287°
2026-05-08 17:25 39.02618 -28.27326 4002 ft 166 kts 319°
2026-05-08 17:25 39.03645 -28.27867 3963 ft 164 kts 357°
2026-05-08 17:25 39.04724 -28.27358 3755 ft 175 kts 34°
2026-05-08 17:26 39.05331 -28.25950 3540 ft 189 kts 68°
2026-05-08 17:26 39.05560 -28.24332 3369 ft 177 kts 72°
2026-05-08 17:26 39.05779 -28.22829 3134 ft 165 kts 69°
2026-05-08 17:26 39.06020 -28.21419 2909 ft 159 kts 67°
2026-05-08 17:27 39.06258 -28.20055 2694 ft 154 kts 67°
2026-05-08 17:27 39.06483 -28.18747 2485 ft 144 kts 66°
2026-05-08 17:27 39.06690 -28.17539 2289 ft 133 kts 66°
2026-05-08 17:27 39.06892 -28.16389 2112 ft 135 kts 66°
2026-05-08 17:28 39.07115 -28.15153 1929 ft 150 kts 66°
2026-05-08 17:28 39.07354 -28.13798 1716 ft 159 kts 68°
2026-05-08 17:28 39.07591 -28.12398 1488 ft 160 kts 69°
2026-05-08 17:28 39.07823 -28.11028 1264 ft 149 kts 68°
2026-05-08 17:29 39.08016 -28.09857 1068 ft 121 kts 66°
2026-05-08 17:29 39.08183 -28.08881 901 ft 106 kts 63°
2026-05-08 17:29 39.08349 -28.07966 784 ft 107 kts 63°
2026-05-08 17:29 39.08509 -28.07042 632 ft 106 kts 64°
2026-05-08 17:30 39.08669 -28.06108 473 ft 108 kts 64°
2026-05-08 17:30 39.08827 -28.05177 346 ft 104 kts 63°
2026-05-08 17:30 39.08992 -28.04268 195 ft 104 kts 63°
2026-05-08 17:30 39.09148 -28.03367 82 ft 97 kts 61°
2026-05-08 17:31 39.09242 -28.02858 67 ft 18 kts 75°
2026-05-08 17:31 39.09246 -28.02792 72 ft 4 kts 163°
2026-05-08 17:31 39.09238 -28.02812 64 ft 4 kts 268°
2026-05-08 17:31 39.09220 -28.02837 69 ft 5 kts 184°
2026-05-08 17:32 39.09178 -28.02839 67 ft 6 kts 189°
2026-05-08 17:32 39.09147 -28.02870 71 ft 5 kts 224°
2026-05-08 17:32 39.09123 -28.02871 72 ft 3 kts 126°
2026-05-08 17:32 39.09121 -28.02863 72 ft 0 kts 100°